Time;durP1;ratioP1;P1;durP2;ratioP2;P2;SDS_P1;SDS_P2;PMS_P1;PMS_P2;Temp;Humidity;BMP_temperature;BMP_pressure;BME280_temperature;BME280_humidity;BME280_pressure;Samples;Min_cycle;Max_cycle;Signal;HPM_P1;HPM_P2
2022/11/08 10:51:32;;;;;;;1.63;1.10;;;15.90;99.90;;;;;;4924100;23;20249;-70
2022/11/08 10:53:59;;;;;;;1.70;0.87;;;16.10;99.90;;;;;;4916240;29;20661;-70
2022/11/08 10:56:26;;;;;;;2.43;1.00;;;15.90;99.90;;;;;;4916431;29;20217;-72
2022/11/08 10:58:53;;;;;;;3.00;0.60;;;16.00;99.90;;;;;;4916226;29;20263;-69
2022/11/08 11:01:22;;;;;;;3.23;0.60;;;16.00;99.90;;;;;;4915850;29;20673;-73
2022/11/08 11:03:50;;;;;;;1.43;0.60;;;16.00;99.90;;;;;;4909998;29;20248;-73
2022/11/08 11:06:23;;;;;;;4.77;0.90;;;16.00;99.90;;;;;;4898989;29;20216;-70
2022/11/08 11:08:55;;;;;;;1.33;0.60;;;16.00;99.90;;;;;;4902444;29;20230;-72
2022/11/08 11:11:34;;;;;;;2.03;0.60;;;16.00;99.90;;;;;;4898385;29;20245;-69
2022/11/08 11:14:11;;;;;;;0.80;0.60;;;15.90;99.90;;;;;;4907030;29;20236;-72
2022/11/08 11:16:48;;;;;;;3.23;0.90;;;16.00;99.90;;;;;;4911414;29;20206;-71
2022/11/08 11:19:15;;;;;;;1.43;0.70;;;15.90;99.90;;;;;;4911311;29;20206;-72
2022/11/08 11:21:44;;;;;;;1.90;0.70;;;15.90;99.90;;;;;;4910741;29;20214;-72
2022/11/08 11:24:18;;;;;;;2.60;0.70;;;16.00;99.90;;;;;;4904504;29;20708;-71
2022/11/08 11:26:48;;;;;;;2.30;0.70;;;16.00;99.90;;;;;;4912402;29;20568;-72
2022/11/08 11:29:22;;;;;;;1.93;0.70;;;15.90;99.90;;;;;;4901163;29;20217;-69
2022/11/08 11:31:51;;;;;;;1.00;0.60;;;15.90;99.90;;;;;;4904069;29;20234;-72
2022/11/08 11:34:41;;;;;;;1.23;0.53;;;15.80;99.90;;;;;;4906223;29;20224;-72
2022/11/08 11:37:19;;;;;;;1.50;0.80;;;15.80;99.90;;;;;;4908506;29;20260;-71
2022/11/08 11:39:57;;;;;;;1.50;0.67;;;15.70;99.90;;;;;;4904476;29;20588;-72
2022/11/08 11:42:31;;;;;;;2.90;1.00;;;15.80;99.90;;;;;;4908288;29;20214;-71
2022/11/08 11:45:09;;;;;;;2.53;0.53;;;15.80;99.90;;;;;;4915133;29;20573;-69
2022/11/08 11:47:43;;;;;;;1.40;0.60;;;15.90;99.90;;;;;;4914916;29;20232;-73
2022/11/08 11:50:28;;;;;;;0.80;0.60;;;15.90;99.90;;;;;;4913044;29;20633;-70
2022/11/08 11:52:56;;;;;;;1.47;0.63;;;15.90;99.90;;;;;;4913323;29;20216;-72
2022/11/08 11:55:32;;;;;;;0.80;0.53;;;15.90;99.90;;;;;;4912133;29;20213;-71
2022/11/08 11:58:10;;;;;;;1.60;0.50;;;16.00;99.90;;;;;;4916268;29;20229;-71
2022/11/08 12:00:42;;;;;;;1.77;0.60;;;15.90;99.90;;;;;;4912428;29;20215;-71
2022/11/08 12:03:36;;;;;;;2.30;0.67;;;15.80;99.90;;;;;;4915219;29;20261;-69
2022/11/08 12:06:15;;;;;;;0.70;0.40;;;15.70;99.90;;;;;;4909462;29;20206;-70
2022/11/08 12:08:56;;;;;;;1.17;0.60;;;15.70;99.90;;;;;;4912359;29;20226;-72
2022/11/08 12:11:40;;;;;;;0.90;0.70;;;15.60;99.90;;;;;;4912396;29;20324;-72
2022/11/08 12:14:30;;;;;;;2.53;0.60;;;15.70;99.90;;;;;;4903993;29;20678;-72
2022/11/08 12:17:15;;;;;;;1.00;0.40;;;15.80;99.90;;;;;;4908482;29;20241;-71
2022/11/08 12:19:49;;;;;;;1.20;0.70;;;16.00;99.90;;;;;;4915504;29;20565;-71
2022/11/08 12:22:40;;;;;;;3.20;0.73;;;15.90;99.90;;;;;;4909737;29;20202;-73
2022/11/08 12:25:14;;;;;;;3.83;1.00;;;15.80;99.90;;;;;;4898976;29;20214;-70
2022/11/08 12:27:50;;;;;;;1.27;0.60;;;15.80;99.90;;;;;;4898388;29;20601;-72
2022/11/08 12:30:19;;;;;;;1.83;0.60;;;15.90;99.90;;;;;;4918176;29;20233;-72
2022/11/08 12:33:10;;;;;;;1.33;0.73;;;15.90;99.90;;;;;;4917727;29;20201;-72
2022/11/08 12:35:50;;;;;;;0.77;0.50;;;15.90;99.90;;;;;;4916270;29;20202;-70
2022/11/08 12:38:28;;;;;;;1.40;0.60;;;15.90;99.90;;;;;;4915667;29;20735;-72
2022/11/08 12:41:02;;;;;;;0.70;0.40;;;15.90;99.90;;;;;;4916089;29;20265;-69
2022/11/08 12:43:49;;;;;;;1.03;0.67;;;16.00;99.90;;;;;;4914705;29;20208;-71
2022/11/08 12:46:18;;;;;;;0.87;0.40;;;15.90;99.90;;;;;;4915758;29;20206;-69
2022/11/08 12:49:02;;;;;;;2.17;1.37;;;15.90;99.90;;;;;;4917430;29;20720;-72
2022/11/08 12:51:38;;;;;;;3.53;0.70;;;15.90;99.90;;;;;;4917432;29;20237;-71
2022/11/08 12:54:19;;;;;;;1.50;0.60;;;15.80;99.90;;;;;;4916991;29;20292;-72
2022/11/08 12:56:47;;;;;;;1.50;0.90;;;16.00;99.90;;;;;;4912110;29;20581;-73
2022/11/08 12:59:20;;;;;;;2.40;0.60;;;16.10;99.90;;;;;;4913998;29;20210;-71
2022/11/08 13:01:47;;;;;;;1.10;0.50;;;16.10;99.90;;;;;;4917821;29;20222;-73
2022/11/08 13:04:43;;;;;;;2.13;0.80;;;16.20;99.90;;;;;;4914935;29;20206;-73
2022/11/08 13:07:22;;;;;;;1.13;0.60;;;16.00;99.90;;;;;;4916398;29;20233;-71
2022/11/08 13:09:55;;;;;;;2.63;0.80;;;16.00;99.90;;;;;;4917871;29;20209;-71
2022/11/08 13:12:30;;;;;;;2.20;0.60;;;16.00;99.90;;;;;;4917568;29;20237;-70
2022/11/08 13:15:00;;;;;;;5.60;0.73;;;16.20;99.90;;;;;;4917702;29;20211;-71
2022/11/08 13:17:28;;;;;;;1.90;0.60;;;16.20;99.90;;;;;;4917289;29;20229;-72
2022/11/08 13:19:59;;;;;;;2.23;0.67;;;16.20;99.90;;;;;;4917377;29;20645;-70
2022/11/08 13:22:56;;;;;;;1.37;0.70;;;16.10;99.90;;;;;;4917569;29;20572;-70
2022/11/08 13:25:40;;;;;;;5.07;1.20;;;16.10;99.90;;;;;;4917381;29;20217;-71
2022/11/08 13:28:36;;;;;;;1.90;0.80;;;16.10;99.90;;;;;;4916695;29;20229;-71
2022/11/08 13:31:21;;;;;;;1.80;0.57;;;16.20;99.90;;;;;;4916987;29;20233;-71
2022/11/08 13:34:07;;;;;;;2.00;1.03;;;16.30;99.90;;;;;;4916983;29;20205;-70
2022/11/08 13:36:46;;;;;;;1.13;0.87;;;16.30;99.90;;;;;;4916671;29;20235;-72
2022/11/08 13:39:38;;;;;;;0.83;0.50;;;16.30;99.90;;;;;;4917117;29;20212;-71
2022/11/08 13:42:38;;;;;;;2.17;0.60;;;16.30;99.90;;;;;;4916749;29;20209;-69
2022/11/08 13:45:24;;;;;;;1.27;0.60;;;16.10;99.90;;;;;;4916905;29;20205;-71
2022/11/08 13:47:55;;;;;;;1.27;0.63;;;16.10;99.90;;;;;;4916883;29;20229;-70
2022/11/08 13:50:45;;;;;;;2.37;0.63;;;16.00;99.90;;;;;;4916804;29;20292;-72
2022/11/08 13:53:39;;;;;;;1.13;0.40;;;16.10;99.90;;;;;;4916412;29;20210;-71
2022/11/08 13:56:41;;;;;;;2.60;0.80;;;16.10;99.90;;;;;;4914402;29;20210;-72
2022/11/08 13:59:53;;;;;;;2.90;0.60;;;16.20;99.90;;;;;;4898250;29;20213;-72
2022/11/08 14:02:39;;;;;;;4.00;0.80;;;16.20;99.90;;;;;;4897894;29;20217;-70
2022/11/08 14:05:24;;;;;;;1.77;0.60;;;16.20;99.90;;;;;;4897941;29;20217;-71
2022/11/08 14:08:17;;;;;;;1.43;0.57;;;16.20;99.90;;;;;;4897354;29;20241;-72
2022/11/08 14:11:19;;;;;;;2.80;0.60;;;16.10;99.90;;;;;;4897892;29;20230;-71
2022/11/08 14:14:16;;;;;;;1.57;0.50;;;16.10;99.90;;;;;;4897791;29;20225;-72
2022/11/08 14:16:55;;;;;;;3.63;0.70;;;16.10;99.90;;;;;;4874025;29;20214;-72
2022/11/08 14:19:24;;;;;;;1.27;0.60;;;16.10;99.90;;;;;;4898079;29;20210;-71
2022/11/08 14:21:54;;;;;;;1.37;0.70;;;16.10;99.90;;;;;;4897390;29;20214;-71
2022/11/08 14:24:24;;;;;;;1.60;0.60;;;16.10;99.90;;;;;;4897503;29;20211;-72
2022/11/08 14:26:52;;;;;;;2.77;0.80;;;16.20;99.90;;;;;;4897439;29;20717;-71
2022/11/08 14:29:22;;;;;;;1.40;0.50;;;16.20;99.90;;;;;;4897791;29;20213;-71
2022/11/08 14:32:00;;;;;;;2.93;0.80;;;16.30;99.90;;;;;;4897719;29;20732;-71
2022/11/08 14:34:29;;;;;;;1.70;0.70;;;16.20;99.90;;;;;;4897931;29;20221;-71
2022/11/08 14:36:57;;;;;;;1.20;0.50;;;16.30;99.90;;;;;;4897531;29;20217;-71
2022/11/08 14:39:28;;;;;;;4.33;0.70;;;16.30;99.90;;;;;;4897588;29;20669;-71
2022/11/08 14:41:58;;;;;;;2.30;0.60;;;16.20;99.90;;;;;;4897463;29;20217;-71
2022/11/08 14:44:26;;;;;;;3.07;0.50;;;16.20;99.90;;;;;;4898111;29;20466;-70
2022/11/08 14:46:53;;;;;;;1.27;0.50;;;16.10;99.90;;;;;;4897089;29;20214;-70
2022/11/08 14:49:22;;;;;;;1.57;0.60;;;16.10;99.90;;;;;;4897268;29;20268;-72
2022/11/08 14:52:11;;;;;;;1.47;0.80;;;16.00;99.90;;;;;;4897130;29;20705;-72
2022/11/08 14:54:40;;;;;;;1.40;0.63;;;16.00;99.90;;;;;;4897343;29;20210;-71
2022/11/08 14:57:32;;;;;;;2.33;0.90;;;16.00;99.90;;;;;;4897352;29;20239;-72
2022/11/08 15:00:02;;;;;;;0.63;0.57;;;15.90;99.90;;;;;;4897335;29;20301;-72
2022/11/08 15:02:29;;;;;;;1.70;0.60;;;15.90;99.90;;;;;;4905375;29;20269;-71
2022/11/08 15:04:56;;;;;;;1.37;0.60;;;15.80;99.90;;;;;;4916211;29;20576;-70
2022/11/08 15:07:25;;;;;;;2.30;0.70;;;15.90;99.90;;;;;;4915476;29;20237;-71
2022/11/08 15:09:53;;;;;;;1.80;0.77;;;15.90;99.90;;;;;;4915164;29;20670;-71
2022/11/08 15:12:22;;;;;;;0.97;0.73;;;15.80;99.90;;;;;;4915635;29;20233;-71
2022/11/08 15:14:53;;;;;;;1.87;0.70;;;15.80;99.90;;;;;;4915930;29;20629;-71
2022/11/08 15:17:35;;;;;;;2.40;0.60;;;15.80;99.90;;;;;;4914113;29;20230;-71
2022/11/08 15:20:22;;;;;;;0.67;0.67;;;15.80;99.90;;;;;;4919590;29;20213;-72
2022/11/08 15:22:50;;;;;;;3.00;0.60;;;15.80;99.90;;;;;;4919561;29;20217;-71
2022/11/08 15:25:27;;;;;;;3.77;0.90;;;15.70;99.90;;;;;;4919705;29;20863;-71
2022/11/08 15:27:55;;;;;;;2.87;0.70;;;15.70;99.90;;;;;;4919222;29;20229;-70
2022/11/08 15:30:32;;;;;;;1.10;0.80;;;15.60;99.90;;;;;;4919296;29;20214;-72
2022/11/08 15:33:01;;;;;;;1.10;0.70;;;15.60;99.90;;;;;;4919311;29;20336;-72
2022/11/08 15:35:33;;;;;;;1.07;0.70;;;15.50;99.90;;;;;;4919380;29;20577;-70
2022/11/08 15:38:04;;;;;;;1.20;0.60;;;15.50;99.90;;;;;;4918851;29;20712;-71
2022/11/08 15:40:34;;;;;;;3.07;0.70;;;15.50;99.90;;;;;;4918775;29;20673;-72
2022/11/08 15:43:02;;;;;;;1.40;0.70;;;15.40;99.90;;;;;;4919637;29;20309;-72
2022/11/08 15:45:32;;;;;;;3.47;0.70;;;15.40;99.90;;;;;;4919416;29;20210;-70
2022/11/08 15:48:12;;;;;;;3.80;0.57;;;15.40;99.90;;;;;;4919339;29;20230;-73
2022/11/08 15:50:39;;;;;;;1.70;0.60;;;15.40;99.90;;;;;;4919261;29;20209;-71
2022/11/08 15:53:07;;;;;;;1.07;0.60;;;15.30;99.90;;;;;;4919358;29;20238;-72
2022/11/08 15:55:38;;;;;;;1.07;0.70;;;15.20;99.90;;;;;;4919302;29;20213;-72
2022/11/08 15:58:09;;;;;;;1.47;0.73;;;15.20;99.90;;;;;;4918987;29;20233;-71
2022/11/08 16:00:37;;;;;;;1.70;0.73;;;15.10;99.90;;;;;;4919120;29;20212;-73
2022/11/08 16:03:04;;;;;;;2.93;0.60;;;15.10;99.90;;;;;;4919007;29;20572;-72
2022/11/08 16:05:31;;;;;;;2.33;0.50;;;15.10;99.90;;;;;;4918840;29;20638;-72
2022/11/08 16:07:59;;;;;;;3.23;0.63;;;15.00;99.90;;;;;;4918291;29;20633;-71
2022/11/08 16:10:31;;;;;;;2.43;0.70;;;15.00;99.90;;;;;;4918277;29;20213;-71
2022/11/08 16:12:59;;;;;;;0.87;0.40;;;14.90;99.90;;;;;;4918816;29;20251;-71
2022/11/08 16:15:29;;;;;;;1.70;0.57;;;14.90;99.90;;;;;;4918949;29;20214;-72
2022/11/08 16:17:56;;;;;;;0.83;0.50;;;14.90;99.90;;;;;;4919065;29;20230;-72
2022/11/08 16:20:26;;;;;;;1.63;0.70;;;14.90;99.90;;;;;;4918697;29;20214;-72
2022/11/08 16:22:54;;;;;;;2.07;0.60;;;14.90;99.90;;;;;;4918848;29;20213;-73
2022/11/08 16:25:21;;;;;;;2.13;1.10;;;14.90;99.90;;;;;;4918844;29;20696;-72
2022/11/08 16:27:53;;;;;;;3.83;0.63;;;14.90;99.90;;;;;;4918647;29;20237;-72
2022/11/08 16:30:20;;;;;;;4.47;0.77;;;14.90;99.90;;;;;;4917909;29;20210;-70
2022/11/08 16:32:48;;;;;;;1.30;0.70;;;14.90;99.90;;;;;;4918784;29;20237;-72
2022/11/08 16:35:15;;;;;;;2.77;0.77;;;14.90;99.90;;;;;;4919206;29;20206;-72
2022/11/08 16:37:42;;;;;;;2.33;0.77;;;14.90;99.90;;;;;;4918297;29;20233;-71
2022/11/08 16:40:18;;;;;;;2.33;0.50;;;14.80;99.90;;;;;;4917977;29;20210;-71
2022/11/08 16:42:45;;;;;;;2.43;0.80;;;14.90;99.90;;;;;;4918188;29;20216;-70
2022/11/08 16:45:14;;;;;;;2.93;0.70;;;14.90;99.90;;;;;;4918497;29;20206;-72
2022/11/08 16:47:42;;;;;;;1.73;0.80;;;14.90;99.90;;;;;;4918803;29;20237;-70
2022/11/08 16:50:16;;;;;;;0.77;0.63;;;14.90;99.90;;;;;;4918533;29;20209;-71
2022/11/08 16:52:43;;;;;;;0.60;0.50;;;14.90;99.90;;;;;;4918309;29;20633;-71
2022/11/08 16:55:13;;;;;;;0.90;0.57;;;14.90;99.90;;;;;;4918574;29;20248;-69
2022/11/08 16:57:40;;;;;;;1.63;0.80;;;14.90;99.90;;;;;;4918506;29;20230;-71
2022/11/08 17:00:08;;;;;;;1.43;0.60;;;14.90;99.90;;;;;;4918355;29;20213;-71
2022/11/08 17:02:39;;;;;;;1.10;0.53;;;14.90;99.90;;;;;;4918400;29;20206;-71
2022/11/08 17:05:06;;;;;;;3.03;0.60;;;14.90;99.90;;;;;;4918280;29;20210;-71
2022/11/08 17:07:34;;;;;;;3.37;0.70;;;14.90;99.90;;;;;;4917792;29;20234;-70
2022/11/08 17:10:00;;;;;;;3.20;0.70;;;14.90;99.90;;;;;;4918268;29;20573;-70
2022/11/08 17:12:27;;;;;;;2.97;0.80;;;14.80;99.90;;;;;;4918145;29;20240;-70
2022/11/08 17:14:55;;;;;;;5.93;1.10;;;14.90;99.90;;;;;;4918394;29;20224;-71
2022/11/08 17:17:21;;;;;;;2.20;0.90;;;14.80;99.90;;;;;;4917898;29;20717;-69
2022/11/08 17:19:49;;;;;;;1.63;0.70;;;14.80;99.90;;;;;;4918355;29;20221;-70
2022/11/08 17:22:16;;;;;;;1.10;0.50;;;14.80;99.90;;;;;;4918026;29;20216;-71
2022/11/08 17:24:43;;;;;;;3.77;0.60;;;14.80;99.90;;;;;;4917842;29;20220;-71
2022/11/08 17:27:10;;;;;;;1.70;0.70;;;14.80;99.90;;;;;;4917725;29;20233;-70
2022/11/08 17:29:37;;;;;;;3.40;0.90;;;14.90;99.90;;;;;;4917727;29;20244;-71
2022/11/08 17:32:04;;;;;;;3.27;0.97;;;14.90;99.90;;;;;;4917674;29;20247;-71
2022/11/08 17:34:30;;;;;;;1.33;0.57;;;14.90;99.90;;;;;;4918099;29;20205;-71
2022/11/08 17:36:58;;;;;;;1.67;0.80;;;14.90;99.90;;;;;;4917504;29;20242;-70
2022/11/08 17:39:25;;;;;;;2.50;0.80;;;14.90;99.90;;;;;;4917818;29;20235;-71
2022/11/08 17:41:52;;;;;;;1.70;0.70;;;14.80;99.90;;;;;;4916769;29;20232;-70
2022/11/08 17:44:19;;;;;;;1.67;0.70;;;14.90;99.90;;;;;;4917467;29;20214;-70
2022/11/08 17:46:46;;;;;;;1.70;0.90;;;14.80;99.90;;;;;;4917489;29;20221;-68
2022/11/08 17:49:13;;;;;;;2.10;0.90;;;14.80;99.90;;;;;;4917645;29;20209;-69
2022/11/08 17:51:40;;;;;;;1.23;0.70;;;14.80;99.90;;;;;;4917838;29;20221;-68
2022/11/08 17:54:08;;;;;;;1.60;0.67;;;14.80;99.90;;;;;;4916836;29;20214;-70
2022/11/08 17:56:35;;;;;;;1.37;0.70;;;14.90;99.90;;;;;;4917766;29;20214;-70
2022/11/08 17:59:02;;;;;;;3.20;0.90;;;14.90;99.90;;;;;;4916916;29;20728;-71
2022/11/08 18:01:30;;;;;;;0.83;0.53;;;14.90;99.90;;;;;;4916723;29;20566;-70
2022/11/08 18:03:57;;;;;;;1.70;0.50;;;14.90;99.90;;;;;;4917120;29;20210;-69
2022/11/08 18:06:23;;;;;;;2.40;1.10;;;14.90;99.90;;;;;;4917082;29;20205;-69
2022/11/08 18:08:50;;;;;;;2.93;1.00;;;14.90;99.90;;;;;;4917158;29;20240;-70
2022/11/08 18:11:18;;;;;;;2.03;0.80;;;14.90;99.90;;;;;;4917246;29;20206;-70
2022/11/08 18:13:45;;;;;;;2.40;0.70;;;14.90;99.90;;;;;;4916663;29;20581;-70
2022/11/08 18:16:14;;;;;;;2.97;1.00;;;14.90;99.90;;;;;;4917181;29;20689;-70
2022/11/08 18:18:41;;;;;;;3.10;0.90;;;14.90;99.90;;;;;;4916978;29;20230;-70
2022/11/08 18:21:09;;;;;;;1.70;0.90;;;15.00;99.90;;;;;;4916909;29;20296;-70
2022/11/08 18:23:36;;;;;;;1.50;0.83;;;15.10;99.90;;;;;;4917186;29;20225;-70
2022/11/08 18:26:02;;;;;;;1.43;0.90;;;15.10;99.90;;;;;;4916745;29;20214;-70
2022/11/08 18:28:31;;;;;;;2.07;0.70;;;15.00;99.90;;;;;;4916926;29;20229;-71
2022/11/08 18:31:04;;;;;;;1.80;0.83;;;15.10;99.90;;;;;;4916869;29;20212;-70
2022/11/08 18:33:32;;;;;;;1.90;0.93;;;15.10;99.90;;;;;;4916798;29;20241;-70
2022/11/08 18:36:03;;;;;;;1.80;0.93;;;15.10;99.90;;;;;;4915793;29;20210;-71
2022/11/08 18:38:29;;;;;;;2.70;1.00;;;15.10;99.90;;;;;;4915895;29;20606;-70
2022/11/08 18:40:56;;;;;;;3.03;1.20;;;15.20;99.90;;;;;;4915876;29;20210;-70
2022/11/08 18:43:23;;;;;;;1.57;0.80;;;15.20;99.90;;;;;;4916075;29;20205;-69
2022/11/08 18:45:51;;;;;;;1.90;1.20;;;15.30;99.90;;;;;;4916025;29;20209;-70
2022/11/08 18:48:18;;;;;;;2.07;0.90;;;15.30;99.90;;;;;;4916450;29;20738;-70
2022/11/08 18:50:49;;;;;;;1.33;0.90;;;15.30;99.90;;;;;;4916527;29;20224;-69
2022/11/08 18:53:16;;;;;;;1.47;0.97;;;15.30;99.90;;;;;;4918709;29;20696;-69
2022/11/08 18:55:44;;;;;;;2.93;0.87;;;15.30;99.90;;;;;;4920162;29;20210;-69
2022/11/08 18:58:11;;;;;;;1.43;0.60;;;15.20;99.90;;;;;;4920701;29;20234;-69
2022/11/08 19:00:38;;;;;;;0.83;0.80;;;15.30;99.90;;;;;;4920424;29;20216;-69
2022/11/08 19:03:06;;;;;;;1.97;0.93;;;15.30;99.90;;;;;;4920402;29;20221;-70
2022/11/08 19:05:33;;;;;;;1.37;0.60;;;15.30;99.90;;;;;;4920680;29;20265;-70
2022/11/08 19:07:59;;;;;;;3.60;1.10;;;15.30;99.90;;;;;;4920077;29;20664;-70
2022/11/08 19:10:26;;;;;;;1.57;0.83;;;15.30;99.90;;;;;;4920547;29;20296;-70
2022/11/08 19:12:53;;;;;;;4.83;1.00;;;15.30;99.90;;;;;;4919987;29;20724;-69
2022/11/08 19:15:21;;;;;;;1.43;0.67;;;15.30;99.90;;;;;;4920235;29;20216;-70
2022/11/08 19:17:52;;;;;;;1.57;0.70;;;15.20;99.90;;;;;;4920095;29;20229;-70
2022/11/08 19:20:22;;;;;;;1.73;0.70;;;15.20;99.90;;;;;;4919814;29;20216;-70
2022/11/08 19:22:52;;;;;;;2.33;0.70;;;15.20;99.90;;;;;;4919952;29;20621;-70
2022/11/08 19:25:19;;;;;;;1.33;0.60;;;15.20;99.90;;;;;;4919797;29;20669;-70
2022/11/08 19:27:46;;;;;;;1.87;1.07;;;15.20;99.90;;;;;;4919756;29;20240;-70
2022/11/08 19:30:13;;;;;;;3.67;0.90;;;15.20;99.90;;;;;;4920029;29;20300;-70
2022/11/08 19:32:40;;;;;;;1.93;1.00;;;15.30;99.90;;;;;;4919712;29;20233;-70
2022/11/08 19:35:07;;;;;;;3.63;0.93;;;15.30;99.90;;;;;;4919662;29;20335;-69
2022/11/08 19:37:36;;;;;;;2.27;0.63;;;15.30;99.90;;;;;;4918938;29;20229;-71
2022/11/08 19:40:02;;;;;;;1.00;0.60;;;15.40;99.90;;;;;;4919385;29;20205;-70
2022/11/08 19:42:29;;;;;;;2.97;0.60;;;15.50;99.90;;;;;;4919355;29;20218;-71
2022/11/08 19:44:56;;;;;;;1.70;0.87;;;15.60;99.90;;;;;;4919436;29;20538;-69
2022/11/08 19:47:23;;;;;;;1.30;0.73;;;15.50;99.90;;;;;;4919394;29;20641;-70
2022/11/08 19:49:50;;;;;;;3.40;0.90;;;15.40;99.90;;;;;;4919853;29;20213;-70
2022/11/08 19:52:16;;;;;;;2.97;0.57;;;15.40;99.90;;;;;;4919370;29;20324;-69
2022/11/08 19:54:45;;;;;;;2.40;0.60;;;15.50;99.90;;;;;;4919386;29;20665;-71
2022/11/08 19:57:12;;;;;;;2.47;0.70;;;15.50;99.90;;;;;;4919393;29;20566;-70
2022/11/08 19:59:38;;;;;;;3.20;0.70;;;15.50;99.90;;;;;;4919208;29;20219;-70
2022/11/08 20:02:06;;;;;;;1.37;0.50;;;15.40;99.90;;;;;;4918985;29;20209;-70
2022/11/08 20:04:33;;;;;;;2.60;1.00;;;15.40;99.90;;;;;;4918065;29;20232;-70
2022/11/08 20:06:59;;;;;;;2.30;0.70;;;15.40;99.90;;;;;;4919024;29;20566;-69
2022/11/08 20:09:26;;;;;;;3.63;0.80;;;15.40;99.90;;;;;;4919157;29;20672;-69
2022/11/08 20:11:55;;;;;;;3.33;1.07;;;15.40;99.90;;;;;;4919078;29;20210;-70
2022/11/08 20:14:21;;;;;;;4.47;0.73;;;15.40;99.90;;;;;;4919245;29;20636;-71
2022/11/08 20:16:48;;;;;;;3.23;0.70;;;15.30;99.90;;;;;;4918978;29;20216;-71
2022/11/08 20:19:16;;;;;;;1.77;0.80;;;15.30;99.90;;;;;;4918840;29;20220;-70
2022/11/08 20:21:44;;;;;;;1.27;0.60;;;15.30;99.90;;;;;;4918690;29;20220;-70
2022/11/08 20:24:12;;;;;;;3.03;0.83;;;15.30;99.90;;;;;;4918664;29;20550;-71
2022/11/08 20:26:40;;;;;;;1.07;0.60;;;15.30;99.90;;;;;;4918565;29;20216;-70
2022/11/08 20:29:08;;;;;;;2.87;0.67;;;15.20;99.90;;;;;;4917485;29;20205;-70
2022/11/08 20:31:36;;;;;;;2.73;0.70;;;15.20;99.90;;;;;;4917351;29;20202;-69
2022/11/08 20:34:06;;;;;;;2.70;0.70;;;15.20;99.90;;;;;;4917165;29;20237;-70
2022/11/08 20:36:36;;;;;;;2.60;1.20;;;15.20;99.90;;;;;;4917007;29;20209;-70
2022/11/08 20:39:03;;;;;;;3.00;1.17;;;15.20;99.90;;;;;;4917284;29;20212;-70
2022/11/08 20:41:30;;;;;;;2.07;0.50;;;15.20;99.90;;;;;;4917169;29;20214;-69
2022/11/08 20:43:57;;;;;;;2.20;0.83;;;15.20;99.90;;;;;;4917229;29;20214;-70
2022/11/08 20:46:25;;;;;;;1.53;0.53;;;15.20;99.90;;;;;;4918355;29;20664;-69
2022/11/08 20:48:54;;;;;;;4.47;0.80;;;15.20;99.90;;;;;;4918429;29;20237;-69
2022/11/08 20:51:21;;;;;;;1.73;0.60;;;15.20;99.90;;;;;;4918470;29;20217;-70
2022/11/08 20:53:48;;;;;;;1.63;0.60;;;15.10;99.90;;;;;;4918383;29;20241;-70
2022/11/08 20:56:16;;;;;;;2.13;0.80;;;15.10;99.90;;;;;;4918452;29;20247;-70
2022/11/08 20:58:45;;;;;;;2.80;0.60;;;15.10;99.90;;;;;;4918131;29;20701;-70
2022/11/08 21:01:14;;;;;;;2.40;0.50;;;15.00;99.90;;;;;;4918252;29;20222;-70
2022/11/08 21:03:43;;;;;;;4.17;0.80;;;15.10;99.90;;;;;;4918166;29;20224;-71
2022/11/08 21:06:13;;;;;;;2.83;0.73;;;15.00;99.90;;;;;;4917993;29;20272;-70
2022/11/08 21:08:39;;;;;;;1.77;0.63;;;15.00;99.90;;;;;;4918122;29;20239;-70
2022/11/08 21:11:07;;;;;;;1.77;0.47;;;15.00;99.90;;;;;;4918135;29;20661;-70
2022/11/08 21:13:36;;;;;;;2.37;0.80;;;14.90;99.90;;;;;;4918077;29;20233;-70
2022/11/08 21:16:04;;;;;;;7.43;0.80;;;15.00;99.90;;;;;;4917917;29;20210;-69
2022/11/08 21:18:32;;;;;;;0.80;0.60;;;15.00;99.90;;;;;;4917860;29;20229;-71
2022/11/08 21:21:07;;;;;;;3.87;0.87;;;14.90;99.90;;;;;;4917193;29;20657;-70
2022/11/08 21:23:34;;;;;;;2.57;0.63;;;14.90;99.90;;;;;;4916437;29;20422;-70
2022/11/08 21:26:01;;;;;;;4.13;0.80;;;14.90;99.90;;;;;;4916878;29;20217;-70
2022/11/08 21:28:28;;;;;;;1.57;0.60;;;14.90;99.90;;;;;;4916792;29;20227;-70
2022/11/08 21:30:55;;;;;;;2.20;0.60;;;14.90;99.90;;;;;;4917184;29;20209;-71
2022/11/08 21:33:22;;;;;;;1.57;0.63;;;14.90;99.90;;;;;;4916251;29;20234;-70
2022/11/08 21:35:49;;;;;;;2.70;0.73;;;14.80;99.90;;;;;;4917430;29;20209;-70
2022/11/08 21:38:18;;;;;;;1.97;0.60;;;14.80;99.90;;;;;;4916019;29;20234;-70
2022/11/08 21:40:46;;;;;;;3.30;0.63;;;14.80;99.90;;;;;;4916957;29;20669;-70
2022/11/08 21:43:13;;;;;;;2.40;0.73;;;14.80;99.90;;;;;;4916641;29;20206;-70
2022/11/08 21:45:40;;;;;;;3.63;0.70;;;14.80;99.90;;;;;;4916819;29;20217;-69
2022/11/08 21:48:08;;;;;;;1.43;0.70;;;14.80;99.90;;;;;;4917233;29;20257;-70
2022/11/08 21:50:35;;;;;;;2.57;0.90;;;14.80;99.90;;;;;;4917289;29;20217;-71
2022/11/08 21:53:03;;;;;;;1.70;0.87;;;14.80;99.90;;;;;;4917372;29;20600;-71
2022/11/08 21:55:32;;;;;;;2.83;0.70;;;14.80;99.90;;;;;;4917319;29;20214;-71
2022/11/08 21:58:00;;;;;;;1.60;0.60;;;14.80;99.90;;;;;;4917230;29;20236;-70
2022/11/08 22:00:28;;;;;;;3.43;0.77;;;14.70;99.90;;;;;;4917130;29;20211;-70
2022/11/08 22:02:55;;;;;;;4.43;0.77;;;14.70;99.90;;;;;;4916981;29;20216;-70
2022/11/08 22:05:22;;;;;;;3.57;0.80;;;14.70;99.90;;;;;;4916570;29;20213;-70
2022/11/08 22:07:49;;;;;;;2.50;1.00;;;14.70;99.90;;;;;;4916729;29;20237;-70
2022/11/08 22:10:15;;;;;;;1.43;0.90;;;14.70;99.90;;;;;;4916957;29;20213;-71
2022/11/08 22:12:44;;;;;;;3.57;0.80;;;14.70;99.90;;;;;;4916547;29;20209;-70
2022/11/08 22:15:11;;;;;;;2.93;0.90;;;14.70;99.90;;;;;;4916592;29;20220;-70
2022/11/08 22:17:37;;;;;;;3.83;0.60;;;14.70;99.90;;;;;;4916765;29;20244;-70
2022/11/08 22:20:06;;;;;;;1.23;0.63;;;14.60;99.90;;;;;;4917408;29;20211;-70
2022/11/08 22:22:32;;;;;;;2.80;0.60;;;14.60;99.90;;;;;;4912676;29;20205;-72
